Aérodrome :
LOGIN :

S'inscrire | Disclaimer

   EN    FR    IT 

 










Légende :    VFR   VFR Marginal   IFR   IFR Intensif   IFR Très Intensif
Visi : 
Plafond : 
>= 8 km
>= 3000ft
5 à 8 km
1000 à 3000 ft
1500m à 5 km
500 à 1000 ft
800 à 1500m
200 à 500 ft
< 800m
< 200 ft
Symboles :   Orages  Brouillard  Fortes neiges  Fortes précipitations  Vent > 20 kt
SIGMETs :   Divers  Orages  Givrage  Turbulence  Onde Orograph.  Cendres Volcan.







- Altitude de l'aérodrome : 359 ft
- Code IATA : BVA
- Voir les cartes d'approche


LFOB - Beauvais

DERNIER METAR :
  • 210100Z AUTO 12006KT 9999 FEW029 SCT064 11/09 Q1011 TEMPO 20015G25KT 4000 RA BKN013

METARs EXPIRÉS :
  • 210030Z AUTO 11006KT 9999 BKN047 11/09 Q1011 TEMPO 20015G25KT 4000 RA BKN013
  • 210000Z AUTO 15005KT 9999 BKN047 BKN056 11/09 Q1011 NOSIG
  • 202330Z AUTO 16007KT CAVOK 11/08 Q1012 NOSIG
  • 202300Z AUTO 16006KT CAVOK 10/08 Q1012 NOSIG
  • 202230Z AUTO 15005KT CAVOK 10/08 Q1012 NOSIG
  • 202200Z AUTO 14005KT CAVOK 10/07 Q1012 NOSIG

TAF TAF LFOB
Valide du 21 à 00h jusqu'au 22 à 00h UTC


202300Z 2100/2124 18008KT 9999 SCT040
TEMPO 2102/2108 20015G25KT 4000 RA BKN013
BECMG 2108/2110 21020G33KT
TEMPO 2112/2117 4000 SHRA BKN030CB
PROB30
TEMPO 2112/2116 2000 TSRA BKN020CB
ATIS : +33 3 44 11 49 28
Pas de NOTAMs connus pour ce terrain.
1 SIGMET publié pour la FIR Paris (LFFF) :
 
Turbulence forte
LFFF SIGMET 5 VALID 202300/210300 LFPW
LFFF PARIS FIR/UIR SEV TURB FCST WI N4845 W00015 - N5000 W00015 - N5100 E00145 - N4945 E00145 SFC/FL060 MOV E 25KT NC=



MET'MAP, la Météo Aéronautique d'un coup d'oeil ! - Copyright ORBIFLY Décembre 2007 - Disclaimer

ORBIFLY MET'MAP TEAM :

Programmation & Développement : Alexandra Zaïnal
Conception & Développement : Baudouin d'Aumeries
Co-Programmation & Développement : Marc-Olivier Méhu
Soutien technique & logistique : Manuel Goepfert

Contact : metmap@orbifly.com




SOURCES & CREDITS :

   NOAA